Time;durP1;ratioP1;P1;durP2;ratioP2;P2;SDS_P1;SDS_P2;PMS_P1;PMS_P2;Temp;Humidity;BMP_temperature;BMP_pressure;BME280_temperature;BME280_humidity;BME280_pressure;Samples;Min_cycle;Max_cycle;Signal;HPM_P1;HPM_P2
2023/02/02 00:01:15;;;;;;;16.70;16.10;;;20.00;45.80;;;;;;5122165;28;20476;-63
2023/02/02 00:03:42;;;;;;;17.50;16.80;;;20.00;45.90;;;;;;5122861;28;20468;-63
2023/02/02 00:06:08;;;;;;;17.07;16.27;;;20.00;45.90;;;;;;5109554;28;20586;-63
2023/02/02 00:08:38;;;;;;;16.10;15.60;;;20.00;46.50;;;;;;5100555;28;20829;-64
2023/02/02 00:11:06;;;;;;;16.80;16.20;;;20.00;45.90;;;;;;5102265;28;20537;-64
2023/02/02 00:13:33;;;;;;;17.00;16.50;;;20.00;46.00;;;;;;5106701;28;20445;-64
2023/02/02 00:16:18;;;;;;;16.17;15.67;;;20.00;46.00;;;;;;5119791;28;20438;-62
2023/02/02 00:18:45;;;;;;;16.40;15.80;;;19.90;45.90;;;;;;5118435;28;20791;-64
2023/02/02 00:21:11;;;;;;;16.70;16.13;;;20.00;46.00;;;;;;5118938;28;20545;-64
2023/02/02 00:23:39;;;;;;;16.47;15.87;;;19.90;45.90;;;;;;5112969;28;20510;-62
2023/02/02 00:26:06;;;;;;;16.20;15.70;;;19.90;45.90;;;;;;5097244;28;20573;-62
2023/02/02 00:28:33;;;;;;;17.10;16.30;;;19.90;45.90;;;;;;5096427;28;20451;-63
2023/02/02 00:31:00;;;;;;;16.87;16.27;;;19.90;46.00;;;;;;5096275;28;20542;-64
2023/02/02 00:33:27;;;;;;;15.93;15.43;;;19.90;46.00;;;;;;5099983;28;20803;-64
2023/02/02 00:35:54;;;;;;;16.67;16.07;;;19.90;46.00;;;;;;5110498;28;20443;-64
2023/02/02 00:38:21;;;;;;;16.77;16.10;;;19.90;46.00;;;;;;5096394;28;20446;-63
2023/02/02 00:40:49;;;;;;;16.63;15.90;;;19.90;46.10;;;;;;5095712;28;21038;-63
2023/02/02 00:43:16;;;;;;;16.50;15.97;;;19.90;46.10;;;;;;5095276;28;20451;-63
2023/02/02 00:45:42;;;;;;;17.13;16.53;;;19.90;46.10;;;;;;5094324;28;20489;-62
2023/02/02 00:48:09;;;;;;;17.57;16.97;;;19.90;46.10;;;;;;5094536;28;20446;-63
2023/02/02 00:50:36;;;;;;;16.40;15.90;;;19.90;46.10;;;;;;5094281;28;20469;-63
2023/02/02 00:53:03;;;;;;;16.70;16.20;;;19.90;46.10;;;;;;5094329;28;20449;-63
2023/02/02 00:55:30;;;;;;;16.33;15.73;;;19.90;46.10;;;;;;5110874;28;20931;-62
2023/02/02 00:57:58;;;;;;;16.80;16.20;;;19.90;46.20;;;;;;5114215;28;20528;-62
2023/02/02 01:00:27;;;;;;;16.60;16.00;;;19.90;46.20;;;;;;5114654;28;20466;-63
2023/02/02 01:02:54;;;;;;;16.87;16.30;;;19.90;46.20;;;;;;5115072;28;20452;-63
2023/02/02 01:05:22;;;;;;;16.37;15.63;;;19.90;46.20;;;;;;5095638;28;20474;-63
2023/02/02 01:07:49;;;;;;;17.00;16.17;;;19.90;46.20;;;;;;5094235;28;20442;-63
2023/02/02 01:10:17;;;;;;;17.43;16.63;;;19.90;46.20;;;;;;5093582;28;20813;-63
2023/02/02 01:12:44;;;;;;;16.87;16.27;;;19.90;46.30;;;;;;5093484;28;20477;-63
2023/02/02 01:15:13;;;;;;;16.77;16.17;;;19.90;46.30;;;;;;5109854;28;20528;-63
2023/02/02 01:17:40;;;;;;;16.60;16.10;;;19.90;46.30;;;;;;5114649;28;20441;-63
2023/02/02 01:20:09;;;;;;;16.70;16.10;;;19.90;46.30;;;;;;5114255;28;20560;-63
2023/02/02 01:22:37;;;;;;;17.23;16.43;;;19.90;46.40;;;;;;5113045;28;20446;-63
2023/02/02 01:25:04;;;;;;;17.27;16.57;;;19.90;46.50;;;;;;5114340;28;20568;-63
2023/02/02 01:27:31;;;;;;;17.17;16.50;;;19.90;46.50;;;;;;5114149;28;20813;-64
2023/02/02 01:29:58;;;;;;;16.70;16.20;;;19.90;46.50;;;;;;5114239;28;20551;-62
2023/02/02 01:32:26;;;;;;;16.27;15.57;;;19.90;46.50;;;;;;5107579;28;20533;-63
2023/02/02 01:34:53;;;;;;;17.30;16.70;;;19.90;46.50;;;;;;5113761;28;20464;-63
2023/02/02 01:37:21;;;;;;;16.00;15.50;;;19.90;46.50;;;;;;5113232;28;20536;-62
2023/02/02 01:39:47;;;;;;;16.97;16.27;;;19.90;46.50;;;;;;5113460;28;20461;-63
2023/02/02 01:42:19;;;;;;;16.23;15.73;;;19.90;46.50;;;;;;5107550;28;20529;-62
2023/02/02 01:45:14;;;;;;;15.90;15.40;;;19.90;46.50;;;;;;5092600;28;20513;-62
2023/02/02 01:47:46;;;;;;;16.37;15.77;;;19.90;46.50;;;;;;5092621;28;20452;-62
2023/02/02 01:50:16;;;;;;;16.17;15.60;;;19.80;46.50;;;;;;5092668;28;20463;-63
2023/02/02 01:52:46;;;;;;;16.60;16.00;;;19.80;46.50;;;;;;5101874;28;20873;-63
2023/02/02 01:55:17;;;;;;;16.60;16.00;;;19.80;46.50;;;;;;5113347;28;20536;-63
2023/02/02 01:57:48;;;;;;;17.10;16.40;;;19.80;46.60;;;;;;5113235;28;20448;-63
2023/02/02 02:00:17;;;;;;;16.50;15.90;;;19.80;46.60;;;;;;5112940;28;20464;-63
2023/02/02 02:02:48;;;;;;;15.70;15.30;;;19.80;46.60;;;;;;5104133;28;20474;-62
2023/02/02 02:05:18;;;;;;;16.90;16.30;;;19.80;46.70;;;;;;5092860;28;20478;-63
2023/02/02 02:07:49;;;;;;;16.97;16.27;;;19.80;46.70;;;;;;5092754;28;20460;-62
2023/02/02 02:10:17;;;;;;;16.60;16.10;;;19.80;46.70;;;;;;5092368;28;20472;-63
2023/02/02 02:12:43;;;;;;;16.33;15.83;;;19.80;46.70;;;;;;5100925;28;20442;-62
2023/02/02 02:18:12;;;;;;;16.53;16.03;;;19.90;46.80;;;;;;5037473;28;20422;-63
2023/02/02 02:27:41;;;;;;;16.40;15.90;;;19.80;46.70;;;;;;5114552;28;20444;-62
2023/02/02 02:30:36;;;;;;;16.40;15.90;;;19.80;46.80;;;;;;5122803;28;20465;-62
2023/02/02 02:33:05;;;;;;;16.97;16.20;;;19.80;46.80;;;;;;5120837;28;20494;-62
2023/02/02 02:35:37;;;;;;;16.60;16.00;;;19.80;46.90;;;;;;5125500;28;20494;-61
2023/02/02 02:38:10;;;;;;;17.20;16.33;;;19.80;46.90;;;;;;5131768;28;20471;-62
2023/02/02 02:40:42;;;;;;;16.93;16.33;;;19.80;47.00;;;;;;5133407;28;20510;-62
2023/02/02 02:43:14;;;;;;;16.70;16.10;;;19.80;47.00;;;;;;5132146;28;20505;-63
2023/02/02 02:45:43;;;;;;;16.87;16.27;;;19.80;47.10;;;;;;5103899;28;20470;-63
2023/02/02 02:48:11;;;;;;;16.60;16.10;;;19.80;47.10;;;;;;5098504;28;20442;-63
2023/02/02 02:50:38;;;;;;;17.10;16.50;;;19.80;47.10;;;;;;5099580;28;20557;-62
2023/02/02 02:53:10;;;;;;;17.00;16.30;;;19.80;47.10;;;;;;5108373;28;20901;-64
2023/02/02 02:55:54;;;;;;;17.13;16.47;;;19.80;47.10;;;;;;5119745;28;20443;-63
2023/02/02 02:58:27;;;;;;;16.80;16.07;;;19.80;47.10;;;;;;5119299;28;20448;-63
2023/02/02 03:01:03;;;;;;;16.60;16.00;;;19.80;47.10;;;;;;5118763;28;20463;-63
2023/02/02 03:03:45;;;;;;;16.80;16.30;;;19.80;47.10;;;;;;5117344;28;20599;-62
2023/02/02 03:06:20;;;;;;;17.20;16.60;;;19.80;47.10;;;;;;5117231;28;20948;-63
2023/02/02 03:08:52;;;;;;;17.23;16.60;;;19.80;47.10;;;;;;5118683;28;20451;-62
2023/02/02 03:11:19;;;;;;;17.60;16.80;;;19.80;47.10;;;;;;5118311;28;20445;-63
2023/02/02 03:13:47;;;;;;;18.00;17.20;;;19.80;47.10;;;;;;5104369;28;20781;-63
2023/02/02 03:16:16;;;;;;;16.93;16.40;;;19.80;47.10;;;;;;5098046;28;20442;-63
2023/02/02 03:18:44;;;;;;;16.97;16.30;;;19.80;47.20;;;;;;5097083;28;20442;-63
2023/02/02 03:21:11;;;;;;;16.53;15.80;;;19.70;47.10;;;;;;5097724;28;20448;-62
2023/02/02 03:23:38;;;;;;;16.90;16.40;;;19.80;47.20;;;;;;5108753;28;20437;-63
2023/02/02 03:26:06;;;;;;;16.60;16.10;;;19.80;47.20;;;;;;5115833;28;20481;-63
2023/02/02 03:28:34;;;;;;;17.03;16.53;;;19.80;47.20;;;;;;5116125;28;20522;-62
2023/02/02 03:31:01;;;;;;;17.23;16.53;;;19.80;47.20;;;;;;5111634;28;20462;-63
2023/02/02 03:33:28;;;;;;;17.07;16.47;;;19.80;47.30;;;;;;5095620;28;20803;-63
2023/02/02 03:35:56;;;;;;;16.80;16.20;;;19.80;47.30;;;;;;5095538;28;20448;-62
2023/02/02 03:38:23;;;;;;;17.50;16.80;;;19.80;47.30;;;;;;5095749;28;20469;-63
2023/02/02 03:40:51;;;;;;;17.67;17.07;;;19.80;47.30;;;;;;5098328;28;20557;-63
2023/02/02 03:43:20;;;;;;;17.13;16.53;;;19.80;47.30;;;;;;5115712;28;20441;-63
2023/02/02 03:45:47;;;;;;;17.50;16.70;;;19.80;47.30;;;;;;5115506;28;20485;-62
2023/02/02 03:48:14;;;;;;;16.70;16.20;;;19.80;47.30;;;;;;5115659;28;20437;-62
2023/02/02 03:50:41;;;;;;;17.47;16.60;;;19.80;47.30;;;;;;5100211;28;20553;-63
2023/02/02 03:53:09;;;;;;;17.03;16.50;;;19.80;47.30;;;;;;5094275;28;20541;-62
2023/02/02 03:55:37;;;;;;;17.17;16.50;;;19.80;47.40;;;;;;5095179;28;20533;-63
2023/02/02 03:58:04;;;;;;;17.07;16.37;;;19.80;47.50;;;;;;5095040;28;20443;-62
2023/02/02 04:00:31;;;;;;;17.73;17.13;;;19.80;47.50;;;;;;5109114;28;20461;-63
2023/02/02 04:02:58;;;;;;;17.93;17.30;;;19.80;47.40;;;;;;5119102;28;20444;-63
2023/02/02 04:05:25;;;;;;;17.63;17.03;;;19.80;47.40;;;;;;5118546;28;20473;-63
2023/02/02 04:07:52;;;;;;;17.00;16.40;;;19.80;47.40;;;;;;5118902;28;20464;-62
2023/02/02 04:10:20;;;;;;;17.27;16.67;;;19.80;47.50;;;;;;5116642;28;20572;-63
2023/02/02 04:12:47;;;;;;;17.27;16.57;;;19.80;47.50;;;;;;5103910;28;20811;-63
2023/02/02 04:15:14;;;;;;;17.50;16.80;;;19.80;47.40;;;;;;5097737;28;20541;-63
2023/02/02 04:17:41;;;;;;;17.40;16.80;;;19.80;47.50;;;;;;5095885;28;20446;-63
2023/02/02 04:20:08;;;;;;;17.10;16.50;;;19.80;47.50;;;;;;5096253;28;20565;-63
2023/02/02 04:22:35;;;;;;;17.60;17.00;;;19.80;47.50;;;;;;5094364;28;20439;-62
2023/02/02 04:25:02;;;;;;;17.03;16.43;;;19.90;47.60;;;;;;5094961;28;20964;-62
2023/02/02 04:27:32;;;;;;;17.80;17.10;;;19.90;47.60;;;;;;5094400;28;20449;-62
2023/02/02 04:29:59;;;;;;;17.10;16.60;;;19.80;47.60;;;;;;5094506;28;20561;-62
2023/02/02 04:32:26;;;;;;;17.40;16.90;;;19.90;47.60;;;;;;5094389;28;20449;-63
2023/02/02 04:34:53;;;;;;;17.37;16.77;;;19.90;47.70;;;;;;5094631;28;20877;-62
2023/02/02 04:37:19;;;;;;;17.93;17.23;;;19.90;47.60;;;;;;5095670;28;20533;-62
2023/02/02 04:39:47;;;;;;;17.40;16.80;;;19.90;47.70;;;;;;5114758;28;20564;-63
2023/02/02 04:42:14;;;;;;;17.37;16.87;;;19.90;47.60;;;;;;5117185;28;20452;-63
2023/02/02 04:44:44;;;;;;;17.20;16.63;;;19.90;47.70;;;;;;5115940;28;20476;-63
2023/02/02 04:47:11;;;;;;;17.30;16.80;;;19.90;47.70;;;;;;5116156;28;20824;-63
2023/02/02 04:49:38;;;;;;;17.27;16.67;;;19.90;47.70;;;;;;5115215;28;20471;-63
2023/02/02 04:52:05;;;;;;;17.93;17.13;;;19.90;47.70;;;;;;5115880;28;20547;-62
2023/02/02 04:54:32;;;;;;;17.33;16.83;;;19.90;47.70;;;;;;5115444;28;20433;-62
2023/02/02 04:56:59;;;;;;;17.30;16.63;;;20.00;47.70;;;;;;5114908;28;20809;-62
2023/02/02 04:59:28;;;;;;;17.97;17.27;;;20.00;47.80;;;;;;5099066;28;20469;-62
2023/02/02 05:01:56;;;;;;;18.60;17.90;;;20.00;47.70;;;;;;5093637;28;20453;-62
2023/02/02 05:04:23;;;;;;;18.30;17.60;;;20.00;47.70;;;;;;5093627;28;20959;-63
2023/02/02 05:06:50;;;;;;;18.00;17.40;;;20.00;47.70;;;;;;5100072;28;20481;-62
2023/02/02 05:09:17;;;;;;;18.27;17.47;;;20.00;47.80;;;;;;5114007;28;20556;-63
2023/02/02 05:11:43;;;;;;;17.90;17.30;;;20.00;47.80;;;;;;5114736;28;20532;-62
2023/02/02 05:14:10;;;;;;;18.57;17.87;;;20.00;47.70;;;;;;5113926;28;20448;-63
2023/02/02 05:16:38;;;;;;;17.80;17.20;;;20.00;47.70;;;;;;5112426;28;20461;-64
2023/02/02 05:19:06;;;;;;;18.23;17.50;;;20.00;47.80;;;;;;5096627;28;20470;-64
2023/02/02 05:21:33;;;;;;;17.87;17.27;;;20.00;47.80;;;;;;5096429;28;20510;-63
2023/02/02 05:24:01;;;;;;;18.03;17.43;;;20.00;47.80;;;;;;5095907;28;20538;-63
2023/02/02 05:26:28;;;;;;;18.67;18.07;;;20.00;47.90;;;;;;5098982;28;20617;-62
2023/02/02 05:28:56;;;;;;;18.60;17.80;;;19.90;47.80;;;;;;5116641;28;20501;-64
2023/02/02 05:31:22;;;;;;;18.13;17.37;;;19.90;48.00;;;;;;5115320;28;20442;-62
2023/02/02 05:33:49;;;;;;;18.00;17.40;;;19.90;47.90;;;;;;5108701;28;20525;-63
2023/02/02 05:36:17;;;;;;;18.30;17.60;;;20.00;48.50;;;;;;5099217;28;20441;-63
2023/02/02 05:38:44;;;;;;;18.63;17.83;;;20.00;48.00;;;;;;5096812;28;20534;-62
2023/02/02 05:41:11;;;;;;;18.20;17.53;;;20.00;48.00;;;;;;5093224;28;20538;-62
2023/02/02 05:43:38;;;;;;;17.83;17.13;;;19.90;48.00;;;;;;5093169;28;20981;-63
2023/02/02 05:46:05;;;;;;;18.40;17.70;;;19.90;48.00;;;;;;5093053;28;20485;-63
2023/02/02 05:48:32;;;;;;;18.60;17.80;;;19.90;48.10;;;;;;5092924;28;20522;-63
2023/02/02 05:51:03;;;;;;;18.30;17.60;;;19.90;48.00;;;;;;5093755;28;20553;-63
2023/02/02 05:53:32;;;;;;;18.23;17.53;;;19.90;48.00;;;;;;5095777;28;20460;-64
2023/02/02 05:55:59;;;;;;;18.27;17.40;;;19.90;48.10;;;;;;5096347;28;20815;-64
2023/02/02 05:58:26;;;;;;;17.87;17.27;;;19.90;48.00;;;;;;5095781;28;20435;-63
2023/02/02 06:00:54;;;;;;;18.73;17.93;;;19.90;47.90;;;;;;5112779;28;20527;-63
2023/02/02 06:03:21;;;;;;;19.10;18.30;;;20.00;47.60;;;;;;5116645;28;20437;-64
2023/02/02 06:05:47;;;;;;;19.43;18.63;;;20.10;47.60;;;;;;5116248;28;20445;-63
2023/02/02 06:08:15;;;;;;;19.60;18.60;;;20.10;48.10;;;;;;5114684;28;20864;-62
2023/02/02 06:10:43;;;;;;;19.33;18.43;;;20.10;47.80;;;;;;5099088;28;20466;-62
2023/02/02 06:13:10;;;;;;;22.23;20.50;;;20.20;48.40;;;;;;5092427;28;21126;-62
2023/02/02 06:15:37;;;;;;;23.40;21.47;;;20.20;49.70;;;;;;5092007;28;20450;-62
2023/02/02 06:18:05;;;;;;;20.70;19.63;;;20.20;50.50;;;;;;5092372;28;20529;-63
2023/02/02 06:20:32;;;;;;;21.10;19.40;;;20.20;51.70;;;;;;5092636;28;20478;-63
2023/02/02 06:22:59;;;;;;;21.77;20.03;;;20.20;52.40;;;;;;5092340;28;20468;-63
2023/02/02 06:25:27;;;;;;;21.07;19.63;;;20.40;53.00;;;;;;5092332;28;21008;-63
2023/02/02 06:27:57;;;;;;;21.07;19.67;;;20.50;52.70;;;;;;5093450;28;20478;-61
2023/02/02 06:30:24;;;;;;;21.00;19.60;;;20.60;52.10;;;;;;5091765;28;20466;-60
2023/02/02 06:32:51;;;;;;;20.57;19.47;;;20.70;51.60;;;;;;5092230;28;20529;-63
2023/02/02 06:35:18;;;;;;;20.80;19.60;;;20.60;50.90;;;;;;5092160;28;20446;-62
2023/02/02 06:37:44;;;;;;;20.37;19.10;;;20.70;50.40;;;;;;5092149;28;20538;-62
2023/02/02 06:40:12;;;;;;;19.03;18.13;;;20.70;50.00;;;;;;5091656;28;20462;-63
2023/02/02 06:42:40;;;;;;;20.27;18.90;;;20.70;49.70;;;;;;5091914;28;20477;-62
2023/02/02 06:45:09;;;;;;;21.73;20.53;;;20.70;49.40;;;;;;5092538;28;20450;-63
2023/02/02 06:47:36;;;;;;;20.20;19.00;;;20.70;49.10;;;;;;5093333;28;20477;-63
2023/02/02 06:50:03;;;;;;;20.53;18.80;;;20.70;48.90;;;;;;5093728;28;20462;-63
2023/02/02 06:52:29;;;;;;;19.80;18.90;;;20.70;48.70;;;;;;5093543;28;20457;-63
2023/02/02 06:54:56;;;;;;;20.40;19.30;;;20.80;48.50;;;;;;5094215;28;20537;-62
2023/02/02 06:57:23;;;;;;;19.23;18.33;;;20.80;48.80;;;;;;5094160;28;20533;-63
2023/02/02 06:59:51;;;;;;;19.97;18.50;;;20.70;48.00;;;;;;5093871;28;20460;-63
2023/02/02 07:02:19;;;;;;;21.13;19.83;;;20.70;47.90;;;;;;5093716;28;20485;-62
2023/02/02 07:04:46;;;;;;;20.07;19.17;;;20.70;47.70;;;;;;5092052;28;20453;-63
2023/02/02 07:07:13;;;;;;;19.37;18.57;;;20.80;47.70;;;;;;5092486;28;20477;-63
2023/02/02 07:09:39;;;;;;;19.90;18.90;;;20.80;47.60;;;;;;5092273;28;20553;-63
2023/02/02 07:12:07;;;;;;;20.87;19.90;;;20.70;47.40;;;;;;5091956;28;20537;-63
2023/02/02 07:14:33;;;;;;;19.50;18.50;;;20.80;47.40;;;;;;5092224;28;20464;-63
2023/02/02 07:17:00;;;;;;;19.47;18.67;;;20.80;47.20;;;;;;5091833;28;20442;-63
2023/02/02 07:19:29;;;;;;;20.30;19.40;;;20.70;47.00;;;;;;5092255;28;20565;-62
2023/02/02 07:21:55;;;;;;;19.97;19.20;;;20.80;47.00;;;;;;5092433;28;20537;-62
2023/02/02 07:24:22;;;;;;;19.60;18.77;;;20.80;47.00;;;;;;5093251;28;20852;-63
2023/02/02 07:26:49;;;;;;;19.70;18.80;;;20.80;46.90;;;;;;5095900;28;20489;-63
2023/02/02 07:29:16;;;;;;;20.93;19.67;;;20.80;46.80;;;;;;5097017;28;20899;-63
2023/02/02 07:31:43;;;;;;;19.60;18.70;;;20.80;46.70;;;;;;5097080;28;20529;-63
2023/02/02 07:34:09;;;;;;;19.60;18.73;;;20.80;46.60;;;;;;5096514;28;20529;-62
2023/02/02 07:36:38;;;;;;;19.90;18.90;;;20.90;46.60;;;;;;5097014;28;20445;-64
2023/02/02 07:39:06;;;;;;;19.90;19.00;;;20.90;46.50;;;;;;5096902;28;20462;-62
2023/02/02 07:41:35;;;;;;;19.33;18.53;;;20.90;46.50;;;;;;5095627;28;20450;-63
2023/02/02 07:44:01;;;;;;;19.50;18.70;;;20.90;46.40;;;;;;5096863;28;20553;-63
2023/02/02 07:46:29;;;;;;;19.03;18.33;;;20.90;46.40;;;;;;5097154;28;20482;-63
2023/02/02 07:48:57;;;;;;;19.00;18.10;;;20.90;46.30;;;;;;5096353;28;20452;-63
2023/02/02 07:51:25;;;;;;;20.83;19.57;;;21.00;46.30;;;;;;5096201;28;20460;-63
2023/02/02 07:53:57;;;;;;;19.37;18.50;;;20.90;46.20;;;;;;5097014;28;20449;-63
2023/02/02 07:56:26;;;;;;;19.53;18.80;;;21.00;46.20;;;;;;5096543;28;21163;-63
2023/02/02 07:58:53;;;;;;;19.93;19.03;;;21.00;46.10;;;;;;5095789;28;20453;-63
2023/02/02 08:01:21;;;;;;;20.63;19.63;;;21.00;46.10;;;;;;5095842;28;20443;-63
2023/02/02 08:03:49;;;;;;;19.43;18.73;;;21.00;46.00;;;;;;5096234;28;20439;-63
2023/02/02 08:06:18;;;;;;;19.80;18.90;;;21.00;45.90;;;;;;5096225;28;20527;-61
2023/02/02 08:08:46;;;;;;;19.73;18.93;;;21.00;45.80;;;;;;5095619;28;20932;-63
2023/02/02 08:11:15;;;;;;;19.57;18.77;;;20.90;45.70;;;;;;5095926;28;20812;-63
2023/02/02 08:13:43;;;;;;;19.17;18.37;;;20.90;45.70;;;;;;5095981;28;20530;-64
2023/02/02 08:16:11;;;;;;;20.07;19.10;;;20.90;45.70;;;;;;5095998;28;20442;-63
2023/02/02 08:18:38;;;;;;;19.93;19.20;;;20.90;45.60;;;;;;5094730;28;20434;-63
2023/02/02 08:21:07;;;;;;;19.87;18.90;;;20.90;45.60;;;;;;5093825;28;20454;-63
2023/02/02 08:23:35;;;;;;;20.13;19.23;;;20.90;45.50;;;;;;5094643;28;20450;-62
2023/02/02 08:26:10;;;;;;;20.10;19.07;;;20.90;45.50;;;;;;5094078;28;20446;-63
2023/02/02 08:28:39;;;;;;;19.37;18.60;;;20.90;45.50;;;;;;5094384;28;20482;-63
2023/02/02 08:31:08;;;;;;;19.50;18.80;;;20.80;45.40;;;;;;5094103;28;20810;-63
2023/02/02 08:33:35;;;;;;;20.00;19.10;;;20.90;45.50;;;;;;5094225;28;20450;-63
2023/02/02 08:36:02;;;;;;;19.70;18.80;;;20.90;45.50;;;;;;5094374;28;20442;-63
2023/02/02 08:38:28;;;;;;;19.70;18.90;;;20.80;45.40;;;;;;5095062;28;20443;-62
2023/02/02 08:40:56;;;;;;;19.87;19.00;;;20.80;45.40;;;;;;5095159;28;20459;-63
2023/02/02 08:43:23;;;;;;;21.00;20.20;;;20.80;45.30;;;;;;5095897;28;20814;-63
2023/02/02 08:45:52;;;;;;;18.90;18.20;;;20.90;45.40;;;;;;5095754;28;20470;-63
2023/02/02 08:48:20;;;;;;;19.80;19.00;;;20.90;45.40;;;;;;5094876;28;20482;-64
2023/02/02 08:50:52;;;;;;;19.23;18.37;;;20.90;45.40;;;;;;5094831;28;20469;-63
2023/02/02 08:53:20;;;;;;;19.37;18.50;;;20.90;45.40;;;;;;5095018;28;21276;-62
2023/02/02 08:55:46;;;;;;;19.10;18.30;;;21.00;45.50;;;;;;5094501;28;20948;-63
2023/02/02 08:58:13;;;;;;;19.70;18.90;;;21.00;45.40;;;;;;5093841;28;20509;-63
2023/02/02 09:00:41;;;;;;;19.40;18.70;;;21.00;45.40;;;;;;5093837;28;20472;-63
2023/02/02 09:03:09;;;;;;;19.50;18.80;;;21.00;45.30;;;;;;5093895;28;20449;-62
2023/02/02 09:05:37;;;;;;;19.33;18.63;;;21.10;45.40;;;;;;5094389;28;20549;-63
2023/02/02 09:08:05;;;;;;;19.70;19.00;;;21.10;45.30;;;;;;5093829;28;20485;-62
2023/02/02 09:10:34;;;;;;;19.90;18.97;;;21.10;45.30;;;;;;5093549;28;20462;-62
2023/02/02 09:13:01;;;;;;;19.07;18.37;;;21.10;45.20;;;;;;5094018;28;20818;-63
2023/02/02 09:15:28;;;;;;;19.00;18.30;;;21.10;45.20;;;;;;5094048;28;20456;-62
2023/02/02 09:17:55;;;;;;;19.60;18.90;;;21.20;45.20;;;;;;5093705;28;20434;-63
2023/02/02 09:20:23;;;;;;;19.20;18.50;;;21.20;45.20;;;;;;5093359;28;20470;-61
2023/02/02 09:22:50;;;;;;;18.70;17.90;;;21.20;45.10;;;;;;5093462;28;20530;-63
2023/02/02 09:25:16;;;;;;;19.10;18.30;;;21.20;45.10;;;;;;5093598;28;20583;-63
2023/02/02 09:27:43;;;;;;;19.17;18.33;;;21.20;45.10;;;;;;5093465;28;20569;-62
2023/02/02 09:30:11;;;;;;;19.33;18.63;;;21.20;45.10;;;;;;5093288;28;20881;-61
2023/02/02 09:32:38;;;;;;;19.80;19.00;;;21.20;45.10;;;;;;5093437;28;20530;-62
2023/02/02 09:35:05;;;;;;;19.10;18.30;;;21.10;45.00;;;;;;5092984;28;20532;-61
2023/02/02 09:37:35;;;;;;;19.30;18.50;;;21.10;45.00;;;;;;5092867;28;20439;-63
2023/02/02 09:40:02;;;;;;;19.20;18.40;;;21.10;45.00;;;;;;5092526;28;20466;-62
2023/02/02 09:43:02;;;;;;;19.20;18.50;;;21.10;44.90;;;;;;5093217;28;20503;-62
2023/02/02 09:45:43;;;;;;;19.40;18.60;;;21.10;44.90;;;;;;5089066;28;20509;-63
2023/02/02 09:48:23;;;;;;;19.87;18.97;;;21.10;44.90;;;;;;5093201;28;20565;-63
2023/02/02 09:50:53;;;;;;;19.83;19.00;;;21.10;44.90;;;;;;5092704;28;20993;-62
2023/02/02 09:53:29;;;;;;;18.67;18.07;;;21.00;44.80;;;;;;5092699;28;20944;-62
2023/02/02 09:55:58;;;;;;;18.90;18.20;;;21.10;44.90;;;;;;5092706;28;20434;-62
2023/02/02 09:58:28;;;;;;;19.83;19.03;;;21.00;44.80;;;;;;5092664;28;20443;-61
2023/02/02 10:01:01;;;;;;;19.00;18.30;;;21.00;44.80;;;;;;5092683;28;20656;-62
2023/02/02 10:03:33;;;;;;;19.07;18.27;;;20.90;44.80;;;;;;5092618;28;20453;-62
2023/02/02 10:06:06;;;;;;;19.23;18.43;;;20.90;44.80;;;;;;5092913;28;20448;-63
2023/02/02 10:08:38;;;;;;;19.10;18.40;;;20.90;44.80;;;;;;5093538;28;20482;-63
2023/02/02 10:11:27;;;;;;;20.10;19.30;;;20.90;45.40;;;;;;5092525;28;20457;-62
2023/02/02 10:13:58;;;;;;;18.80;18.10;;;20.90;44.90;;;;;;5092502;28;20448;-62
2023/02/02 10:16:25;;;;;;;19.47;18.77;;;21.00;44.90;;;;;;5092296;28;20443;-62
2023/02/02 10:18:57;;;;;;;19.23;18.53;;;21.00;44.90;;;;;;5091869;28;20441;-62
2023/02/02 10:21:32;;;;;;;19.90;19.10;;;21.00;44.90;;;;;;5092104;28;20946;-63
2023/02/02 10:24:03;;;;;;;19.20;18.50;;;21.10;44.90;;;;;;5092358;28;20442;-63
2023/02/02 10:26:37;;;;;;;19.23;18.53;;;21.10;44.90;;;;;;5092555;28;20453;-63
2023/02/02 10:29:14;;;;;;;18.70;17.93;;;21.10;44.90;;;;;;5092251;28;20984;-63
2023/02/02 10:31:54;;;;;;;18.70;18.00;;;21.20;45.00;;;;;;5092645;28;20438;-63
2023/02/02 10:34:25;;;;;;;18.77;18.17;;;21.20;45.00;;;;;;5092475;28;20537;-63
2023/02/02 10:37:02;;;;;;;19.00;18.20;;;21.20;44.90;;;;;;5092410;28;20806;-61
2023/02/02 10:39:44;;;;;;;19.10;18.40;;;21.20;44.90;;;;;;5092267;28;20458;-63
2023/02/02 10:42:18;;;;;;;19.07;18.27;;;21.20;44.90;;;;;;5092592;28;20539;-63
2023/02/02 10:44:50;;;;;;;19.10;18.40;;;21.30;44.90;;;;;;5093667;28;20526;-63
2023/02/02 10:47:23;;;;;;;18.77;18.17;;;21.20;44.90;;;;;;5093406;28;20534;-63
2023/02/02 10:50:00;;;;;;;19.47;18.60;;;21.20;44.80;;;;;;5092910;28;20462;-64
2023/02/02 10:52:32;;;;;;;19.07;18.27;;;21.30;44.80;;;;;;5092934;28;20447;-63
2023/02/02 10:55:07;;;;;;;20.00;19.30;;;21.30;44.80;;;;;;5092028;28;20449;-62
2023/02/02 10:57:47;;;;;;;19.00;18.30;;;21.30;44.70;;;;;;5092898;28;20451;-62
2023/02/02 11:00:20;;;;;;;19.30;18.60;;;21.30;44.70;;;;;;5092217;28;20466;-63
2023/02/02 11:02:47;;;;;;;19.50;18.80;;;21.30;44.60;;;;;;5096382;28;20442;-63
2023/02/02 11:08:17;;;;;;;19.00;18.30;;;21.30;44.60;;;;;;5096624;28;20527;-62
2023/02/02 11:10:46;;;;;;;19.83;19.13;;;21.20;44.60;;;;;;5095858;28;20830;-63
2023/02/02 11:13:26;;;;;;;19.33;18.63;;;21.20;44.60;;;;;;5095972;28;20446;-62
2023/02/02 11:16:22;;;;;;;19.47;18.77;;;21.20;44.60;;;;;;5095592;28;20953;-62
2023/02/02 11:18:49;;;;;;;19.60;18.90;;;21.20;44.60;;;;;;5095636;28;20444;-63
2023/02/02 11:21:19;;;;;;;19.20;18.53;;;21.20;44.60;;;;;;5095849;28;20460;-60
2023/02/02 11:24:00;;;;;;;18.87;18.20;;;21.20;44.60;;;;;;5095369;28;20449;-60
2023/02/02 11:26:43;;;;;;;18.90;18.20;;;21.10;44.50;;;;;;5095184;28;20445;-61
2023/02/02 11:29:20;;;;;;;19.97;19.17;;;21.10;44.50;;;;;;5094801;28;20482;-63
2023/02/02 11:31:47;;;;;;;19.10;18.40;;;21.10;44.60;;;;;;5094985;28;20445;-61
2023/02/02 11:34:19;;;;;;;19.17;18.47;;;21.10;44.60;;;;;;5094952;28;20537;-61
2023/02/02 11:37:12;;;;;;;19.23;18.43;;;21.10;44.60;;;;;;5094874;28;20446;-62
2023/02/02 11:39:39;;;;;;;19.33;18.53;;;21.00;44.60;;;;;;5094646;28;20865;-60
2023/02/02 11:42:13;;;;;;;18.83;18.10;;;21.00;44.60;;;;;;5094875;28;20446;-60
2023/02/02 11:44:43;;;;;;;19.10;18.40;;;21.00;44.60;;;;;;5095030;28;20434;-62
2023/02/02 11:47:20;;;;;;;18.47;17.80;;;21.00;44.60;;;;;;5094799;28;20453;-60
2023/02/02 11:49:47;;;;;;;18.77;18.00;;;21.00;44.60;;;;;;5094373;28;20457;-61
2023/02/02 11:52:18;;;;;;;19.20;18.40;;;21.10;44.70;;;;;;5094696;28;20442;-60
2023/02/02 11:54:48;;;;;;;18.73;18.03;;;21.10;44.70;;;;;;5094454;28;20499;-61
2023/02/02 11:57:20;;;;;;;19.27;18.57;;;21.20;44.70;;;;;;5094609;28;20454;-59
2023/02/02 11:59:48;;;;;;;19.10;18.50;;;21.20;44.70;;;;;;5094286;28;20455;-60
2023/02/02 12:02:29;;;;;;;20.20;19.33;;;21.20;44.70;;;;;;5094497;28;20440;-61
2023/02/02 12:05:14;;;;;;;19.40;18.70;;;21.20;44.70;;;;;;5094528;28;20827;-61
2023/02/02 12:07:43;;;;;;;19.17;18.47;;;21.30;44.70;;;;;;5094258;28;20997;-61
2023/02/02 12:10:18;;;;;;;19.00;18.30;;;21.30;44.70;;;;;;5093968;28;20462;-61
2023/02/02 12:12:56;;;;;;;19.33;18.60;;;21.30;44.70;;;;;;5093079;28;20442;-62
2023/02/02 12:15:35;;;;;;;19.57;18.77;;;21.30;44.70;;;;;;5094203;28;20850;-61
2023/02/02 12:18:13;;;;;;;19.30;18.60;;;21.30;44.60;;;;;;5094131;28;20811;-60
2023/02/02 12:20:46;;;;;;;19.20;18.50;;;21.30;44.60;;;;;;5093874;28;20484;-61
2023/02/02 12:23:31;;;;;;;19.30;18.60;;;21.40;44.60;;;;;;5094198;28;20801;-61
2023/02/02 12:26:17;;;;;;;19.30;18.40;;;21.40;44.60;;;;;;5094086;28;20809;-60
2023/02/02 12:29:05;;;;;;;19.27;18.57;;;21.40;44.60;;;;;;5093678;28;20990;-64
2023/02/02 12:31:44;;;;;;;18.73;18.13;;;21.30;44.50;;;;;;5093790;28;20460;-61
2023/02/02 12:34:21;;;;;;;19.23;18.53;;;21.30;44.50;;;;;;5094077;28;20442;-59
2023/02/02 12:36:53;;;;;;;19.20;18.50;;;21.40;44.50;;;;;;5093849;28;20949;-60
2023/02/02 12:39:29;;;;;;;19.27;18.47;;;21.30;44.40;;;;;;5093498;28;20917;-62
2023/02/02 12:42:17;;;;;;;20.90;19.93;;;21.40;44.50;;;;;;5093845;28;20449;-59
2023/02/02 12:44:58;;;;;;;19.20;18.50;;;21.30;44.40;;;;;;5093536;28;20457;-60
2023/02/02 12:47:31;;;;;;;18.97;18.30;;;21.30;44.40;;;;;;5093601;28;20446;-59
2023/02/02 12:50:19;;;;;;;19.03;18.27;;;21.30;44.40;;;;;;5093333;28;20909;-59
2023/02/02 12:53:03;;;;;;;18.97;18.27;;;21.30;44.40;;;;;;5093460;28;20500;-58
2023/02/02 12:55:40;;;;;;;19.10;18.40;;;21.20;44.40;;;;;;5093503;28;20446;-63